Terminal Aerodrome Forecast
Issued by NWS Jackson, MS

Home | Current Version | Previous Version | Text Only | Print | Product List | Glossary On
Versions: 1 2 3 4 5 6 7 8 9 10 11 12 13 14 15 16
683
FTUS44 KJAN 190534
TAFHBG
TAF
KHBG 190534Z 1906/2006 34013G21KT P6SM BKN070
     FM190900 34010KT P6SM SKC
     FM191500 36011G19KT P6SM SKC
     FM192200 35009KT P6SM SKC=

USA.gov is the U.S. government's official web portal to all federal, state and local government web resources and services.